Fairview, Kansas
Current Conditions -  °F | °C
As of 5:53 PM on Friday 31 Oct 2014 (Local Time) from KFNB Reporting Station
Clear Clear  
Wind Chill: 39°   Ceiling: Unl
Heat Index: 43°   Visibility: 10mi
Dew Point: 17°   Wind: 6mph
Humidity: 35%   Direction: 360°N
Pressure: 30.46"   Gusts: NA
Location:  39.84°N, 95.73°W
Report Text: KFNB 312253Z AUTO 36005KT 10SM CLR 06/M08 A3046 RMK AO2 SLP320 T00611083
Loading
Personal Weather Stations






























Interactive Weather Map
Tropical Storm Tracking
New forecast layout! Learn more

10-Day Weather Forecast

Advertisements
Track Severe Weather on mobile